Wetterdaten: Woche 12.01.15 - 18.01.15 (KW3)
Datum Zeit Temperatur Luftfeuchte Luftdruck Niederschlag Windrichtung Sonnenschein Solar Wind
12.01.2015 00:00 1,8 C 84 % 1028,6 hPa 0,0 l/m W-SW 0,00 h 0 W/m 28,7 km/h (4 Bft)
12.01.2015 01:00 1,9 C 85 % 1028,7 hPa 0,0 l/m W-SW 0,00 h 0 W/m 27,6 km/h (4 Bft)
12.01.2015 02:00 2,1 C 84 % 1029,3 hPa 0,0 l/m SW 0,00 h 0 W/m 24,9 km/h (4 Bft)
12.01.2015 03:00 2,3 C 82 % 1029,5 hPa 0,0 l/m W-SW 0,00 h 0 W/m 24,6 km/h (4 Bft)
12.01.2015 04:00 2,4 C 81 % 1029,5 hPa 0,2 l/m W-SW 0,00 h 0 W/m 28,8 km/h (5 Bft)
12.01.2015 05:00 2,4 C 80 % 1028,8 hPa 0,0 l/m W-SW 0,00 h 0 W/m 27,2 km/h (4 Bft)
12.01.2015 06:00 2,2 C 80 % 1028,3 hPa 0,0 l/m W-SW 0,00 h 0 W/m 22,2 km/h (4 Bft)
12.01.2015 07:00 2,0 C 80 % 1027,9 hPa 0,0 l/m SW 0,00 h 0 W/m 18,9 km/h (3 Bft)
12.01.2015 08:00 1,7 C 82 % 1028,1 hPa 0,0 l/m SW 0,00 h 12 W/m 15,6 km/h (3 Bft)
12.01.2015 09:00 1,7 C 82 % 1028,2 hPa 0,0 l/m W-SW 0,00 h 46 W/m 19,6 km/h (3 Bft)
12.01.2015 10:00 2,1 C 82 % 1027,7 hPa 0,0 l/m W-SW 0,00 h 84 W/m 26,4 km/h (4 Bft)
12.01.2015 11:00 2,8 C 79 % 1027,0 hPa 0,0 l/m W-SW 0,58 h 226 W/m 30,3 km/h (5 Bft)
12.01.2015 12:00 3,9 C 74 % 1026,4 hPa 0,2 l/m SW 0,58 h 224 W/m 31,1 km/h (5 Bft)
12.01.2015 13:00 4,0 C 72 % 1025,6 hPa 0,0 l/m W-SW 0,08 h 131 W/m 22,4 km/h (4 Bft)
12.01.2015 14:00 4,7 C 66 % 1025,1 hPa 0,0 l/m SW 0,00 h 107 W/m 25,3 km/h (4 Bft)
12.01.2015 15:00 4,4 C 68 % 1024,7 hPa 0,0 l/m SW 0,00 h 66 W/m 19,8 km/h (4 Bft)
12.01.2015 16:00 3,6 C 74 % 1024,6 hPa 0,0 l/m SW 0,00 h 15 W/m 16,9 km/h (3 Bft)
12.01.2015 17:00 2,8 C 77 % 1024,1 hPa 0,0 l/m SW 0,00 h 0 W/m 16,9 km/h (3 Bft)
12.01.2015 18:00 3,2 C 74 % 1023,7 hPa 0,0 l/m SW 0,00 h 0 W/m 20,6 km/h (4 Bft)
12.01.2015 19:00 3,8 C 68 % 1023,4 hPa 0,0 l/m SW 0,00 h 0 W/m 19,2 km/h (3 Bft)
12.01.2015 20:00 3,8 C 65 % 1023,4 hPa 0,0 l/m SW 0,00 h 0 W/m 13,7 km/h (3 Bft)
12.01.2015 21:00 3,6 C 65 % 1023,1 hPa 0,0 l/m SW 0,00 h 0 W/m 16,1 km/h (3 Bft)
12.01.2015 22:00 3,1 C 66 % 1023,0 hPa 0,0 l/m SW 0,00 h 0 W/m 19,2 km/h (3 Bft)
12.01.2015 23:00 2,8 C 66 % 1022,4 hPa 0,0 l/m SW 0,00 h 0 W/m 13,6 km/h (3 Bft)
13.01.2015 00:00 2,6 C 65 % 1021,9 hPa 0,0 l/m SW 0,00 h 0 W/m 15,0 km/h (3 Bft)
13.01.2015 01:00 1,9 C 70 % 1021,4 hPa 0,0 l/m SW 0,00 h 0 W/m 15,2 km/h (3 Bft)
13.01.2015 02:00 1,4 C 71 % 1021,2 hPa 0,0 l/m SW 0,00 h 0 W/m 12,5 km/h (3 Bft)
13.01.2015 03:00 1,3 C 70 % 1020,9 hPa 0,0 l/m SW 0,00 h 0 W/m 9,4 km/h (2 Bft)
13.01.2015 04:00 1,7 C 65 % 1020,7 hPa 0,0 l/m W-SW 0,00 h 0 W/m 14,1 km/h (3 Bft)
13.01.2015 05:00 1,3 C 69 % 1020,4 hPa 0,0 l/m SW 0,00 h 0 W/m 12,2 km/h (2 Bft)
13.01.2015 06:00 2,1 C 64 % 1019,9 hPa 0,0 l/m SW 0,00 h 0 W/m 14,6 km/h (3 Bft)
13.01.2015 07:00 0,4 C 72 % 1019,2 hPa 0,0 l/m SW 0,00 h 0 W/m 11,4 km/h (2 Bft)
13.01.2015 08:00 0,1 C 74 % 1019,1 hPa 0,0 l/m SW 0,08 h 11 W/m 14,4 km/h (3 Bft)
13.01.2015 09:00 1,0 C 75 % 1019,0 hPa 0,0 l/m S-SW 0,00 h 24 W/m 11,2 km/h (2 Bft)
13.01.2015 10:00 2,4 C 73 % 1018,7 hPa 0,0 l/m S-SW 0,67 h 158 W/m 11,0 km/h (2 Bft)
13.01.2015 11:00 5,7 C 62 % 1017,9 hPa 0,0 l/m S-SW 1,00 h 292 W/m 10,7 km/h (2 Bft)
13.01.2015 12:00 8,6 C 50 % 1016,8 hPa 0,0 l/m S-SW 1,00 h 343 W/m 15,6 km/h (3 Bft)
13.01.2015 13:00 9,7 C 47 % 1015,9 hPa 0,0 l/m SW 1,00 h 328 W/m 16,4 km/h (3 Bft)
13.01.2015 14:00 11,1 C 35 % 1015,3 hPa 0,0 l/m W-SW 1,00 h 261 W/m 28,2 km/h (4 Bft)
13.01.2015 15:00 11,1 C 37 % 1014,8 hPa 0,0 l/m W-SW 1,00 h 138 W/m 26,0 km/h (4 Bft)
13.01.2015 16:00 9,9 C 42 % 1014,8 hPa 0,0 l/m SW 0,42 h 25 W/m 20,5 km/h (4 Bft)
13.01.2015 17:00 8,5 C 47 % 1014,8 hPa 0,0 l/m SW 0,00 h 0 W/m 13,3 km/h (3 Bft)
13.01.2015 18:00 7,9 C 51 % 1014,5 hPa 0,0 l/m SW 0,00 h 0 W/m 16,5 km/h (3 Bft)
13.01.2015 19:00 7,4 C 53 % 1014,4 hPa 0,0 l/m SW 0,00 h 0 W/m 14,5 km/h (3 Bft)
13.01.2015 20:00 6,7 C 57 % 1014,2 hPa 0,0 l/m SW 0,00 h 0 W/m 12,9 km/h (3 Bft)
13.01.2015 21:00 6,6 C 58 % 1013,9 hPa 0,0 l/m SW 0,00 h 0 W/m 9,8 km/h (2 Bft)
13.01.2015 22:00 5,8 C 66 % 1013,7 hPa 0,0 l/m SW 0,00 h 0 W/m 15,3 km/h (3 Bft)
13.01.2015 23:00 7,5 C 65 % 1013,5 hPa 0,0 l/m SW 0,00 h 0 W/m 18,8 km/h (3 Bft)
14.01.2015 00:00 7,5 C 66 % 1013,5 hPa 0,0 l/m W-SW 0,00 h 0 W/m 19,7 km/h (3 Bft)
14.01.2015 01:00 7,2 C 67 % 1013,5 hPa 0,0 l/m SW 0,00 h 0 W/m 14,5 km/h (3 Bft)
14.01.2015 02:00 8,8 C 69 % 1014,1 hPa 0,0 l/m W-SW 0,00 h 0 W/m 39,7 km/h (6 Bft)
14.01.2015 03:00 7,6 C 80 % 1014,3 hPa 0,2 l/m SW 0,00 h 0 W/m 24,4 km/h (4 Bft)
14.01.2015 04:00 6,4 C 84 % 1013,9 hPa 0,0 l/m SW 0,00 h 0 W/m 11,6 km/h (2 Bft)
14.01.2015 05:00 6,9 C 81 % 1013,8 hPa 0,0 l/m SW 0,00 h 0 W/m 17,8 km/h (3 Bft)
14.01.2015 06:00 7,8 C 77 % 1014,0 hPa 0,0 l/m W-SW 0,00 h 0 W/m 19,8 km/h (4 Bft)
14.01.2015 07:00 6,9 C 80 % 1014,1 hPa 0,0 l/m SW 0,00 h 0 W/m 20,2 km/h (4 Bft)
14.01.2015 08:00 7,0 C 81 % 1014,3 hPa 0,0 l/m SW 0,25 h 18 W/m 23,6 km/h (4 Bft)
14.01.2015 09:00 6,4 C 84 % 1014,8 hPa 1,2 l/m W-SW 0,00 h 17 W/m 27,7 km/h (4 Bft)
14.01.2015 10:00 5,4 C 85 % 1015,1 hPa 0,0 l/m SW 0,00 h 36 W/m 20,9 km/h (4 Bft)
14.01.2015 11:00 5,0 C 86 % 1015,4 hPa 0,0 l/m W-SW 0,00 h 33 W/m 21,0 km/h (4 Bft)
14.01.2015 12:00 4,5 C 88 % 1015,1 hPa 0,0 l/m SW 0,00 h 27 W/m 19,8 km/h (4 Bft)
14.01.2015 13:00 4,3 C 93 % 1014,7 hPa 0,0 l/m SW 0,00 h 69 W/m 16,8 km/h (3 Bft)
14.01.2015 14:00 5,1 C 88 % 1014,7 hPa 0,0 l/m SW 0,00 h 36 W/m 19,6 km/h (3 Bft)
14.01.2015 15:00 4,8 C 90 % 1014,5 hPa 0,4 l/m SW 0,00 h 35 W/m 12,1 km/h (2 Bft)
14.01.2015 16:00 4,5 C 91 % 1015,0 hPa 0,8 l/m W 0,08 h 8 W/m 33,9 km/h (5 Bft)
14.01.2015 17:00 4,0 C 90 % 1016,8 hPa 2,0 l/m W 0,00 h 0 W/m 31,3 km/h (5 Bft)
14.01.2015 18:00 2,5 C 93 % 1017,7 hPa 0,0 l/m W-NW 0,00 h 0 W/m 18,4 km/h (3 Bft)
14.01.2015 19:00 2,6 C 94 % 1018,4 hPa 0,0 l/m W-SW 0,00 h 0 W/m 12,3 km/h (3 Bft)
14.01.2015 20:00 2,3 C 94 % 1019,1 hPa 0,0 l/m W-SW 0,00 h 0 W/m 2,8 km/h (1 Bft)
14.01.2015 21:00 1,3 C 93 % 1019,5 hPa 0,0 l/m W-SW 0,00 h 0 W/m 4,3 km/h (1 Bft)
14.01.2015 22:00 1,7 C 95 % 1019,6 hPa 0,0 l/m W-SW 0,00 h 0 W/m 8,0 km/h (2 Bft)
14.01.2015 23:00 1,2 C 94 % 1019,0 hPa 0,0 l/m W-SW 0,00 h 0 W/m 4,5 km/h (1 Bft)
15.01.2015 00:00 0,8 C 95 % 1018,2 hPa 0,0 l/m N 0,00 h 0 W/m 1,7 km/h (1 Bft)
15.01.2015 01:00 0,3 C 95 % 1017,5 hPa 0,0 l/m N 0,00 h 0 W/m 0,5 km/h (0 Bft)
15.01.2015 02:00 -0,0 C 95 % 1016,9 hPa 0,0 l/m N 0,00 h 0 W/m 0,1 km/h (0 Bft)
15.01.2015 03:00 0,1 C 95 % 1016,4 hPa 0,0 l/m N 0,00 h 0 W/m 0,0 km/h (0 Bft)
15.01.2015 04:00 -0,1 C 95 % 1015,8 hPa 0,0 l/m N 0,00 h 0 W/m 0,0 km/h (0 Bft)
15.01.2015 05:00 -0,1 C 96 % 1014,9 hPa 0,0 l/m W-SW 0,00 h 0 W/m 1,7 km/h (1 Bft)
15.01.2015 06:00 0,3 C 96 % 1014,4 hPa 0,0 l/m W-SW 0,00 h 0 W/m 5,1 km/h (1 Bft)
15.01.2015 07:00 0,8 C 96 % 1013,9 hPa 0,0 l/m S-SW 0,00 h 0 W/m 10,9 km/h (2 Bft)
15.01.2015 08:00 0,8 C 96 % 1013,6 hPa 0,0 l/m SW 0,00 h 12 W/m 7,1 km/h (2 Bft)
15.01.2015 09:00 1,1 C 96 % 1013,1 hPa 0,0 l/m SW 0,00 h 75 W/m 9,1 km/h (2 Bft)
15.01.2015 10:00 3,1 C 93 % 1013,0 hPa 0,0 l/m S-SW 0,00 h 86 W/m 10,6 km/h (2 Bft)
15.01.2015 11:00 3,9 C 90 % 1012,5 hPa 0,0 l/m SW 0,00 h 100 W/m 10,5 km/h (2 Bft)
15.01.2015 12:00 5,7 C 83 % 1011,7 hPa 0,0 l/m S-SW 0,00 h 117 W/m 8,0 km/h (2 Bft)
15.01.2015 13:00 6,1 C 81 % 1010,4 hPa 0,0 l/m S-SW 0,00 h 74 W/m 9,4 km/h (2 Bft)
15.01.2015 14:00 6,4 C 79 % 1009,6 hPa 0,0 l/m SW 0,00 h 45 W/m 7,8 km/h (2 Bft)
15.01.2015 15:00 6,6 C 76 % 1009,1 hPa 0,0 l/m N 0,00 h 33 W/m 2,4 km/h (1 Bft)
15.01.2015 16:00 6,6 C 77 % 1009,1 hPa 0,0 l/m SW 0,00 h 21 W/m 1,2 km/h (1 Bft)
15.01.2015 17:00 5,3 C 80 % 1008,7 hPa 0,0 l/m N 0,00 h 0 W/m 1,3 km/h (1 Bft)
15.01.2015 18:00 3,6 C 83 % 1008,4 hPa 0,0 l/m SW 0,00 h 0 W/m 2,1 km/h (1 Bft)
15.01.2015 19:00 2,3 C 85 % 1008,3 hPa 0,0 l/m N 0,00 h 0 W/m 0,8 km/h (0 Bft)
15.01.2015 20:00 1,2 C 87 % 1008,4 hPa 0,0 l/m N 0,00 h 0 W/m 1,1 km/h (0 Bft)
15.01.2015 21:00 0,5 C 89 % 1008,7 hPa 0,0 l/m SW 0,00 h 0 W/m 1,5 km/h (1 Bft)
15.01.2015 22:00 0,0 C 90 % 1008,9 hPa 0,0 l/m N 0,00 h 0 W/m 1,6 km/h (1 Bft)
15.01.2015 23:00 -0,2 C 92 % 1009,1 hPa 0,0 l/m SW 0,00 h 0 W/m 2,5 km/h (1 Bft)
16.01.2015 00:00 0,3 C 93 % 1009,2 hPa 0,0 l/m SW 0,00 h 0 W/m 1,9 km/h (1 Bft)
16.01.2015 01:00 0,2 C 92 % 1009,4 hPa 0,0 l/m N 0,00 h 0 W/m 0,4 km/h (0 Bft)
16.01.2015 02:00 -0,3 C 92 % 1009,1 hPa 0,0 l/m N 0,00 h 0 W/m 0,0 km/h (0 Bft)
16.01.2015 03:00 -0,5 C 93 % 1008,6 hPa 0,0 l/m W-SW 0,00 h 0 W/m 1,9 km/h (1 Bft)
16.01.2015 04:00 0,2 C 94 % 1008,1 hPa 0,0 l/m W-SW 0,00 h 0 W/m 2,0 km/h (1 Bft)
16.01.2015 05:00 0,5 C 94 % 1007,9 hPa 0,0 l/m N 0,00 h 0 W/m 0,0 km/h (0 Bft)
16.01.2015 06:00 0,7 C 95 % 1007,8 hPa 0,0 l/m W-SW 0,00 h 0 W/m 1,5 km/h (1 Bft)
16.01.2015 07:00 0,6 C 95 % 1008,0 hPa 0,0 l/m N 0,00 h 0 W/m 0,4 km/h (0 Bft)
16.01.2015 08:00 0,8 C 95 % 1007,9 hPa 0,0 l/m N 0,00 h 16 W/m 0,4 km/h (0 Bft)
16.01.2015 09:00 1,4 C 95 % 1007,8 hPa 0,0 l/m W-SW 0,00 h 38 W/m 1,7 km/h (1 Bft)
16.01.2015 10:00 2,3 C 95 % 1007,7 hPa 0,0 l/m NW 0,00 h 53 W/m 7,2 km/h (2 Bft)
16.01.2015 11:00 3,5 C 92 % 1007,5 hPa 0,0 l/m N-NW 0,00 h 88 W/m 8,0 km/h (2 Bft)
16.01.2015 12:00 4,5 C 89 % 1006,9 hPa 0,0 l/m N-NW 0,00 h 98 W/m 3,7 km/h (1 Bft)
16.01.2015 13:00 5,5 C 86 % 1005,7 hPa 0,0 l/m N 0,00 h 92 W/m 2,7 km/h (1 Bft)
16.01.2015 14:00 6,4 C 84 % 1005,1 hPa 0,0 l/m N-NW 0,00 h 77 W/m 5,4 km/h (1 Bft)
16.01.2015 15:00 6,7 C 82 % 1004,8 hPa 0,0 l/m N-NW 0,00 h 63 W/m 6,3 km/h (2 Bft)
16.01.2015 16:00 6,0 C 82 % 1004,7 hPa 0,0 l/m N-NW 0,00 h 12 W/m 9,7 km/h (2 Bft)
16.01.2015 17:00 4,5 C 86 % 1004,8 hPa 0,0 l/m N-NW 0,00 h 0 W/m 9,4 km/h (2 Bft)
16.01.2015 18:00 3,8 C 86 % 1005,0 hPa 0,0 l/m N-NW 0,00 h 0 W/m 2,4 km/h (1 Bft)
16.01.2015 19:00 3,2 C 87 % 1005,4 hPa 0,0 l/m N-NW 0,00 h 0 W/m 2,9 km/h (1 Bft)
16.01.2015 20:00 2,4 C 87 % 1006,1 hPa 0,0 l/m N-NW 0,00 h 0 W/m 1,1 km/h (0 Bft)
16.01.2015 21:00 1,7 C 90 % 1006,9 hPa 0,0 l/m N 0,00 h 0 W/m 0,7 km/h (0 Bft)
16.01.2015 22:00 1,3 C 91 % 1007,0 hPa 0,0 l/m N 0,00 h 0 W/m 0,4 km/h (0 Bft)
16.01.2015 23:00 1,5 C 93 % 1007,7 hPa 0,2 l/m N 0,00 h 0 W/m 0,0 km/h (0 Bft)
17.01.2015 00:00 2,0 C 94 % 1008,5 hPa 1,0 l/m N-NW 0,00 h 0 W/m 1,5 km/h (1 Bft)
17.01.2015 01:00 2,8 C 96 % 1009,1 hPa 1,0 l/m N-NW 0,00 h 0 W/m 5,2 km/h (1 Bft)
17.01.2015 02:00 2,8 C 96 % 1009,8 hPa 1,8 l/m W-NW 0,00 h 0 W/m 5,3 km/h (1 Bft)
17.01.2015 03:00 2,1 C 95 % 1010,2 hPa 1,2 l/m N 0,00 h 0 W/m 2,7 km/h (1 Bft)
17.01.2015 04:00 1,4 C 95 % 1010,7 hPa 1,2 l/m N 0,00 h 0 W/m 3,5 km/h (1 Bft)
17.01.2015 05:00 0,7 C 95 % 1011,4 hPa 1,2 l/m W-NW 0,00 h 0 W/m 3,3 km/h (1 Bft)
17.01.2015 06:00 0,5 C 96 % 1012,2 hPa 1,2 l/m N 0,00 h 0 W/m 2,1 km/h (1 Bft)
17.01.2015 07:00 0,3 C 96 % 1012,6 hPa 1,0 l/m N 0,00 h 0 W/m 0,0 km/h (0 Bft)
17.01.2015 08:00 0,3 C 96 % 1013,3 hPa 0,6 l/m N 0,00 h 8 W/m 0,0 km/h (0 Bft)
17.01.2015 09:00 0,4 C 97 % 1013,7 hPa 0,2 l/m N 0,00 h 16 W/m 0,0 km/h (0 Bft)
17.01.2015 10:00 0,6 C 97 % 1014,3 hPa 0,4 l/m N 0,00 h 26 W/m 0,0 km/h (0 Bft)
17.01.2015 11:00 1,0 C 97 % 1014,5 hPa 0,4 l/m N 0,00 h 65 W/m 0,0 km/h (0 Bft)
17.01.2015 12:00 1,3 C 97 % 1014,8 hPa 0,2 l/m N 0,00 h 64 W/m 0,1 km/h (0 Bft)
17.01.2015 13:00 1,5 C 97 % 1014,6 hPa 0,2 l/m N 0,00 h 77 W/m 0,0 km/h (0 Bft)
17.01.2015 14:00 1,8 C 97 % 1014,5 hPa 0,2 l/m N 0,00 h 54 W/m 0,0 km/h (0 Bft)
17.01.2015 15:00 1,4 C 97 % 1015,0 hPa 0,2 l/m N 0,00 h 28 W/m 0,4 km/h (0 Bft)
17.01.2015 16:00 0,9 C 97 % 1015,4 hPa 0,2 l/m N 0,00 h 14 W/m 0,0 km/h (0 Bft)
17.01.2015 17:00 0,7 C 97 % 1015,8 hPa 0,4 l/m N 0,00 h 0 W/m 0,0 km/h (0 Bft)
17.01.2015 18:00 0,5 C 97 % 1016,1 hPa 0,0 l/m N 0,00 h 0 W/m 0,0 km/h (0 Bft)
17.01.2015 19:00 0,4 C 97 % 1016,8 hPa 0,0 l/m N 0,00 h 0 W/m 0,7 km/h (0 Bft)
17.01.2015 20:00 0,3 C 97 % 1017,3 hPa 0,2 l/m N 0,00 h 0 W/m 0,4 km/h (0 Bft)
17.01.2015 21:00 0,3 C 97 % 1017,7 hPa 0,2 l/m N 0,00 h 0 W/m 0,8 km/h (0 Bft)
17.01.2015 22:00 0,3 C 97 % 1017,9 hPa 0,4 l/m N 0,00 h 0 W/m 0,0 km/h (0 Bft)
17.01.2015 23:00 0,3 C 98 % 1018,0 hPa 0,2 l/m N 0,00 h 0 W/m 0,0 km/h (0 Bft)
18.01.2015 00:00 0,3 C 98 % 1018,2 hPa 0,0 l/m N 0,00 h 0 W/m 0,0 km/h (0 Bft)
18.01.2015 01:00 0,3 C 98 % 1018,2 hPa 0,0 l/m N 0,00 h 0 W/m 0,0 km/h (0 Bft)
18.01.2015 02:00 0,3 C 98 % 1018,3 hPa 0,0 l/m N 0,00 h 0 W/m 0,0 km/h (0 Bft)
18.01.2015 03:00 0,1 C 98 % 1018,4 hPa 0,0 l/m N 0,00 h 0 W/m 0,0 km/h (0 Bft)
18.01.2015 04:00 -0,2 C 98 % 1018,4 hPa 0,0 l/m N 0,00 h 0 W/m 0,0 km/h (0 Bft)
18.01.2015 05:00 -0,3 C 98 % 1018,1 hPa 0,0 l/m N 0,00 h 0 W/m 0,0 km/h (0 Bft)
18.01.2015 06:00 -0,2 C 98 % 1017,8 hPa 0,0 l/m N 0,00 h 0 W/m 0,0 km/h (0 Bft)
18.01.2015 07:00 -0,2 C 98 % 1017,7 hPa 0,0 l/m N 0,00 h 0 W/m 0,0 km/h (0 Bft)
18.01.2015 08:00 -0,3 C 98 % 1017,5 hPa 0,0 l/m N 0,00 h 11 W/m 0,0 km/h (0 Bft)
18.01.2015 09:00 -0,5 C 98 % 1017,6 hPa 0,0 l/m N 0,00 h 32 W/m 0,0 km/h (0 Bft)
18.01.2015 10:00 -0,4 C 98 % 1017,6 hPa 0,0 l/m N 0,00 h 49 W/m 0,0 km/h (0 Bft)
18.01.2015 11:00 -0,0 C 98 % 1017,3 hPa 0,0 l/m N 0,00 h 69 W/m 0,0 km/h (0 Bft)
18.01.2015 12:00 0,4 C 98 % 1016,5 hPa 0,0 l/m S 0,00 h 77 W/m 1,9 km/h (1 Bft)
18.01.2015 13:00 0,7 C 98 % 1015,5 hPa 0,0 l/m N 0,00 h 64 W/m 0,3 km/h (0 Bft)
18.01.2015 14:00 0,8 C 97 % 1014,9 hPa 0,0 l/m N 0,00 h 42 W/m 0,9 km/h (0 Bft)
18.01.2015 15:00 0,7 C 96 % 1014,5 hPa 0,0 l/m N 0,00 h 20 W/m 2,3 km/h (1 Bft)
18.01.2015 16:00 0,6 C 95 % 1014,3 hPa 0,0 l/m N 0,00 h 9 W/m 1,7 km/h (1 Bft)
18.01.2015 17:00 0,4 C 95 % 1014,2 hPa 0,0 l/m N 0,00 h 0 W/m 0,0 km/h (0 Bft)
18.01.2015 18:00 0,3 C 95 % 1014,1 hPa 0,0 l/m N 0,00 h 0 W/m 0,8 km/h (0 Bft)
18.01.2015 19:00 0,2 C 95 % 1014,1 hPa 0,0 l/m N 0,00 h 0 W/m 0,7 km/h (0 Bft)
18.01.2015 20:00 0,1 C 95 % 1014,1 hPa 0,0 l/m N 0,00 h 0 W/m 0,7 km/h (0 Bft)
18.01.2015 21:00 -0,1 C 95 % 1014,0 hPa 0,0 l/m N 0,00 h 0 W/m 1,3 km/h (1 Bft)
18.01.2015 22:00 -0,3 C 95 % 1013,9 hPa 0,0 l/m N 0,00 h 0 W/m 0,1 km/h (0 Bft)
18.01.2015 23:00 -0,4 C 95 % 1013,7 hPa 0,0 l/m N 0,00 h 0 W/m 0,7 km/h (0 Bft)
Min-Datum _ 16.01.15 13.01.15 16.01.15 - - - - 13.01.15
_ Min-Zeit 03:05 14:55 16:40 - - - - 03:15
Minimum _ -0,7 C 34 % 1004,5 hPa - - - - 0,0 km/h (0 Bft)
Max-Datum _ 13.01.15 17.01.15 12.01.15 14.01.15 - 12.01.15 13.01.15 14.01.15
_ Max-Zeit 14:55 14:00 02:55 17:30 - 11:05 12:15 16:15
Maximum _ 11,3 C 98 % 1029,8 hPa 2,0 l/m - 0,08 h 345 W/m 51,5 km/h
W (7 Bft)
Durchschnitt _ 2,7 C 85 % 1015,5 hPa #18,8 l/m SW #7:45 h 73 W/m 9,2 km/h (2 Bft)